GF-0004 weather

Vila Brasil Airport
Camopi, Cayenne, French Guiana

Public forecast

Using degrees Celsius for public forecast. Weather courtesy of forecast.io.

METAR (pilot weather report)

Report is more than 6 hours old.

Closest report is Oiapoque Airport, 52.2 nm (96.7 km) NE. Retrieved 2019/02/15 20:00 UTC (13 hours ago):

SBOI 152000Z 07006KT 9999 SCT040 SCT090 29/21 Q1012

TAF (pilot weather forecast)

Forecast is more than 12 hours old.

Closest forecast is Oiapoque Airport, 52.2 nm (96.7 km) NE. Retrieved 2019/02/06 00:29 UTC (10 days ago):

TAF SBOI 062200Z 0700/0712 04010KT 9999 SCT030 TN22/0706Z TX29/0712Z BECMG 0709/0711 04007KT SCT017 RMK PEQ